Time;durP1;ratioP1;P1;durP2;ratioP2;P2;SDS_P1;SDS_P2;PMS_P1;PMS_P2;Temp;Humidity;BMP_temperature;BMP_pressure;BME280_temperature;BME280_humidity;BME280_pressure;Samples;Min_cycle;Max_cycle;Signal;HPM_P1;HPM_P2
2021/05/11 00:01:45;;;;;;;0.68;0.30;;;12.00;99.90;;;;;;5045462;28;20033;-56
2021/05/11 00:04:13;;;;;;;0.15;0.15;;;11.90;99.90;;;;;;5044863;28;20036;-56
2021/05/11 00:06:39;;;;;;;0.30;0.30;;;11.90;99.90;;;;;;5044451;28;20483;-57
2021/05/11 00:09:06;;;;;;;0.20;0.20;;;11.90;99.90;;;;;;5044944;28;20044;-57
2021/05/11 00:11:34;;;;;;;0.30;0.30;;;11.90;99.90;;;;;;5044139;28;20116;-57
2021/05/11 00:14:00;;;;;;;0.20;0.20;;;11.90;99.90;;;;;;5044265;28;20037;-57
2021/05/11 00:16:25;;;;;;;0.20;0.20;;;12.10;99.90;;;;;;5043383;28;20487;-57
2021/05/11 00:18:52;;;;;;;0.45;0.32;;;12.20;99.90;;;;;;5045190;28;20017;-57
2021/05/11 00:21:19;;;;;;;0.20;0.20;;;12.00;99.90;;;;;;5051542;28;20060;-57
2021/05/11 00:23:45;;;;;;;0.20;0.20;;;12.00;99.90;;;;;;5052725;28;20075;-57
2021/05/11 00:26:11;;;;;;;0.20;0.20;;;12.00;99.90;;;;;;5078888;28;20040;-56
2021/05/11 00:28:37;;;;;;;0.30;0.30;;;12.00;99.90;;;;;;5046262;28;20036;-56
2021/05/11 00:31:02;;;;;;;0.20;0.20;;;12.00;99.90;;;;;;5046691;28;20078;-56
2021/05/11 00:33:28;;;;;;;0.20;0.20;;;11.90;99.90;;;;;;5046137;28;20361;-56
2021/05/11 00:35:54;;;;;;;0.17;0.17;;;11.80;99.90;;;;;;5046893;28;20033;-56
2021/05/11 00:38:19;;;;;;;0.30;0.30;;;11.80;99.90;;;;;;5061093;28;20025;-57
2021/05/11 00:40:45;;;;;;;0.20;0.20;;;11.80;99.90;;;;;;5065055;28;20033;-57
2021/05/11 00:43:11;;;;;;;0.15;0.15;;;11.90;99.90;;;;;;5064857;28;20032;-56
2021/05/11 00:45:37;;;;;;;0.47;0.30;;;12.00;99.90;;;;;;5058559;28;20143;-57
2021/05/11 00:48:03;;;;;;;0.60;0.28;;;12.00;99.90;;;;;;5063366;28;20033;-57
2021/05/11 00:50:29;;;;;;;0.15;0.10;;;12.10;99.90;;;;;;5063715;28;20027;-56
2021/05/11 00:52:55;;;;;;;0.20;0.20;;;12.20;99.90;;;;;;5064654;28;20025;-56
2021/05/11 00:55:21;;;;;;;0.47;0.20;;;12.10;99.90;;;;;;5064491;28;20594;-58
2021/05/11 00:57:48;;;;;;;0.20;0.20;;;12.20;99.90;;;;;;5064703;28;20024;-57
2021/05/11 01:00:14;;;;;;;0.25;0.25;;;;;;;;;;5064817;28;20132;-57
2021/05/11 01:02:40;;;;;;;0.20;0.20;;;;;;;;;;5063549;28;20032;-57
2021/05/11 01:05:07;;;;;;;0.47;0.40;;;;;;;;;;5064510;28;20117;-57
2021/05/11 01:07:34;;;;;;;0.20;0.20;;;;;;;;;;5064380;28;20154;-57
2021/05/11 01:10:01;;;;;;;0.10;0.10;;;;;;;;;;5064852;28;20033;-57
2021/05/11 01:12:27;;;;;;;0.40;0.40;;;;;;;;;;5064773;28;20054;-57
2021/05/11 01:14:54;;;;;;;0.20;0.20;;;;;;;;;;5064663;28;20028;-57
2021/05/11 01:17:25;;;;;;;0.20;0.20;;;;;;;;;;5063401;28;20028;-57
2021/05/11 01:19:57;;;;;;;0.20;0.20;;;;;;;;;;5062713;28;20601;-57
2021/05/11 01:24:55;;;;;;;0.30;0.30;;;;;;;;;;5064527;28;20037;-57
2021/05/11 01:27:34;;;;;;;0.28;0.22;;;;;;;;;;5065758;28;20591;-57
2021/05/11 01:32:55;;;;;;;0.20;0.20;;;;;;;;;;5066384;28;20068;-57
2021/05/11 02:23:19;;;;;;;0.20;0.20;;;;;;;;;;5067429;28;20036;-57
2021/05/11 02:25:45;;;;;;;1.00;0.20;;;;;;;;;;5066801;28;20116;-59
2021/05/11 02:28:11;;;;;;;0.55;0.10;;;;;;;;;;5067340;28;20067;-57
2021/05/11 02:30:37;;;;;;;0.15;0.15;;;;;;;;;;5066379;28;20040;-58
2021/05/11 02:33:03;;;;;;;0.43;0.20;;;;;;;;;;5066686;28;20021;-58
2021/05/11 02:35:29;;;;;;;0.20;0.20;;;;;;;;;;5067523;28;20109;-58
2021/05/11 02:37:56;;;;;;;0.30;0.30;;;;;;;;;;5066584;28;20055;-59
2021/05/11 02:40:24;;;;;;;0.20;0.20;;;;;;;;;;5066316;28;20550;-59
2021/05/11 02:42:55;;;;;;;0.10;0.10;;;;;;;;;;5064647;28;20021;-59
2021/05/11 02:45:21;;;;;;;0.20;0.20;;;;;;;;;;5046963;28;20090;-59
2021/05/11 02:47:49;;;;;;;0.20;0.20;;;;;;;;;;5046590;28;20422;-60
2021/05/11 02:50:17;;;;;;;0.20;0.20;;;;;;;;;;5045725;28;20456;-59
2021/05/11 02:52:43;;;;;;;0.30;0.22;;;11.10;99.90;;;;;;5046625;28;20033;-60
2021/05/11 02:55:09;;;;;;;0.40;0.30;;;11.30;99.90;;;;;;5047339;28;20017;-59
2021/05/11 02:57:35;;;;;;;0.40;0.22;;;11.00;99.90;;;;;;5050077;28;20391;-58
2021/05/11 03:00:04;;;;;;;1.15;0.30;;;11.00;99.90;;;;;;5065391;28;20037;-57
2021/05/11 03:02:29;;;;;;;0.20;0.20;;;10.90;99.90;;;;;;5066120;28;20086;-56
2021/05/11 03:04:55;;;;;;;0.30;0.30;;;10.70;99.90;;;;;;5065309;28;20025;-58
2021/05/11 03:07:22;;;;;;;0.30;0.30;;;10.70;99.90;;;;;;5046367;28;20703;-60
2021/05/11 03:09:49;;;;;;;0.30;0.30;;;10.60;99.90;;;;;;5046455;28;20041;-61
2021/05/11 03:12:15;;;;;;;0.30;0.30;;;10.60;99.90;;;;;;5061495;28;20099;-58
2021/05/11 03:14:40;;;;;;;0.68;0.20;;;10.50;99.90;;;;;;5066355;28;20047;-57
2021/05/11 03:17:06;;;;;;;0.20;0.20;;;10.50;99.90;;;;;;5066142;28;20020;-57
2021/05/11 03:19:32;;;;;;;0.20;0.20;;;10.40;99.90;;;;;;5064871;28;20039;-57
2021/05/11 03:21:57;;;;;;;0.20;0.20;;;10.50;99.90;;;;;;5065820;28;20039;-57
2021/05/11 03:24:24;;;;;;;0.30;0.20;;;10.60;99.90;;;;;;5065707;28;20025;-57
2021/05/11 03:26:50;;;;;;;0.20;0.20;;;10.60;99.90;;;;;;5066142;28;20040;-60
2021/05/11 03:29:17;;;;;;;0.10;0.10;;;10.60;99.90;;;;;;5047066;28;20029;-60
2021/05/11 03:31:43;;;;;;;0.20;0.20;;;10.60;99.90;;;;;;5045632;28;20065;-61
2021/05/11 03:34:09;;;;;;;0.20;0.20;;;10.50;99.90;;;;;;5046282;28;20064;-60
2021/05/11 03:36:34;;;;;;;0.20;0.20;;;10.50;99.90;;;;;;5045701;28;20024;-58
2021/05/11 03:39:04;;;;;;;0.88;0.28;;;10.50;99.90;;;;;;5046187;28;20031;-57
2021/05/11 03:41:35;;;;;;;0.20;0.20;;;10.50;99.90;;;;;;5045593;28;20476;-57
2021/05/11 03:44:06;;;;;;;0.10;0.10;;;10.40;99.90;;;;;;5045883;28;20033;-56
2021/05/11 03:46:36;;;;;;;0.10;0.10;;;10.40;99.90;;;;;;5045703;28;20037;-56
2021/05/11 03:49:03;;;;;;;0.20;0.20;;;10.40;99.90;;;;;;5061753;28;20038;-55
2021/05/11 03:51:29;;;;;;;0.10;0.10;;;10.30;99.90;;;;;;5065141;28;20024;-54
2021/05/11 03:53:56;;;;;;;0.10;0.10;;;10.40;99.90;;;;;;5063739;28;20025;-52
2021/05/11 03:56:22;;;;;;;0.10;0.10;;;10.40;99.90;;;;;;5065350;28;20021;-53
2021/05/11 03:58:48;;;;;;;0.80;0.20;;;10.30;99.90;;;;;;5064935;28;20028;-49
2021/05/11 04:01:14;;;;;;;0.10;0.10;;;10.40;99.90;;;;;;5064442;28;20029;-50
2021/05/11 04:03:40;;;;;;;0.20;0.20;;;10.40;99.90;;;;;;5065730;28;20028;-49
2021/05/11 04:06:06;;;;;;;0.20;0.20;;;10.50;99.90;;;;;;5065444;28;20558;-52
2021/05/11 04:11:16;;;;;;;0.20;0.20;;;10.30;99.90;;;;;;5046611;28;20041;-52
2021/05/11 04:16:27;;;;;;;0.28;0.28;;;10.20;99.90;;;;;;5046204;28;20036;-52
2021/05/11 04:18:54;;;;;;;0.20;0.20;;;10.10;99.90;;;;;;5063335;28;20055;-50
2021/05/11 04:21:20;;;;;;;0.32;0.32;;;10.40;99.90;;;;;;5066169;28;20031;-52
2021/05/11 04:23:48;;;;;;;0.20;0.20;;;10.40;99.90;;;;;;5066544;28;20017;-50
2021/05/11 04:26:14;;;;;;;0.10;0.10;;;10.30;99.90;;;;;;5066418;28;20100;-48
2021/05/11 04:28:41;;;;;;;0.15;0.15;;;10.30;99.90;;;;;;5066781;28;20139;-47
2021/05/11 04:31:08;;;;;;;0.13;0.13;;;10.30;99.90;;;;;;5066436;28;20024;-47
2021/05/11 04:33:34;;;;;;;0.13;0.13;;;10.20;99.90;;;;;;5066059;28;20055;-47
2021/05/11 04:36:00;;;;;;;0.10;0.10;;;10.20;99.90;;;;;;5066607;28;20044;-49
2021/05/11 04:38:26;;;;;;;0.10;0.10;;;10.10;99.90;;;;;;5066380;28;20431;-47
2021/05/11 04:40:53;;;;;;;0.20;0.20;;;10.10;99.90;;;;;;5066472;28;20035;-47
2021/05/11 04:43:20;;;;;;;0.20;0.20;;;10.20;99.90;;;;;;5051877;28;20029;-47
2021/05/11 04:45:47;;;;;;;0.40;0.20;;;10.20;99.90;;;;;;5046502;28;20441;-47
2021/05/11 04:48:12;;;;;;;0.20;0.20;;;10.20;99.90;;;;;;5046466;28;20503;-48
2021/05/11 04:50:39;;;;;;;0.30;0.30;;;10.10;99.90;;;;;;5064326;28;20044;-47
2021/05/11 04:53:05;;;;;;;0.38;0.30;;;9.80;99.90;;;;;;5065257;28;20047;-48
2021/05/11 04:55:32;;;;;;;0.20;0.20;;;9.80;99.90;;;;;;5066003;28;20028;-47
2021/05/11 04:57:57;;;;;;;0.20;0.20;;;10.10;99.90;;;;;;5066034;28;20104;-50
2021/05/11 05:00:23;;;;;;;0.20;0.20;;;10.20;99.90;;;;;;5065426;28;20107;-46
2021/05/11 05:02:55;;;;;;;0.40;0.40;;;10.30;99.90;;;;;;5068395;28;20017;-48
2021/05/11 05:05:21;;;;;;;0.30;0.30;;;10.20;99.90;;;;;;5068480;28;20085;-48
2021/05/11 05:07:47;;;;;;;0.20;0.20;;;10.30;99.90;;;;;;5066926;28;20267;-49
2021/05/11 05:10:13;;;;;;;1.38;0.30;;;10.00;99.90;;;;;;5068871;28;20032;-49
2021/05/11 05:12:41;;;;;;;0.22;0.22;;;10.00;99.90;;;;;;5068815;28;20039;-47
2021/05/11 05:15:07;;;;;;;0.73;0.30;;;10.20;99.90;;;;;;5068493;28;20025;-47
2021/05/11 05:17:33;;;;;;;0.68;0.30;;;10.00;99.90;;;;;;5068063;28;20036;-47
2021/05/11 05:19:59;;;;;;;0.30;0.30;;;9.90;99.90;;;;;;5067492;28;20502;-50
2021/05/11 05:22:25;;;;;;;0.30;0.30;;;9.90;99.90;;;;;;5068162;28;20096;-51
2021/05/11 05:24:56;;;;;;;0.20;0.20;;;10.10;99.90;;;;;;5068438;28;20560;-49
2021/05/11 05:29:50;;;;;;;0.22;0.22;;;10.10;99.90;;;;;;5068433;28;20437;-45
2021/05/11 05:32:16;;;;;;;0.30;0.30;;;10.30;99.90;;;;;;5068184;28;20016;-49
2021/05/11 05:34:42;;;;;;;0.40;0.40;;;10.30;99.90;;;;;;5067107;28;20089;-49
2021/05/11 05:37:11;;;;;;;0.38;0.38;;;10.40;99.90;;;;;;5068223;28;20027;-45
2021/05/11 05:39:42;;;;;;;0.30;0.30;;;10.40;99.90;;;;;;5068125;28;20130;-46
2021/05/11 05:42:08;;;;;;;0.30;0.30;;;10.50;99.90;;;;;;5068077;28;20082;-48
2021/05/11 05:44:34;;;;;;;0.32;0.32;;;10.60;99.90;;;;;;5068049;28;20144;-46
2021/05/11 05:47:01;;;;;;;0.50;0.50;;;10.60;99.90;;;;;;5066008;28;20655;-46
2021/05/11 05:49:32;;;;;;;0.30;0.30;;;10.20;99.90;;;;;;5064109;28;20070;-50
2021/05/11 05:52:04;;;;;;;0.30;0.30;;;10.40;99.90;;;;;;5063405;28;20621;-50
2021/05/11 05:54:29;;;;;;;0.30;0.30;;;10.50;99.90;;;;;;5068988;28;20111;-48
2021/05/11 05:56:55;;;;;;;0.40;0.40;;;10.40;99.90;;;;;;5069198;28;20136;-49
2021/05/11 05:59:21;;;;;;;0.73;0.40;;;10.10;99.90;;;;;;5068134;28;20036;-48
2021/05/11 06:01:48;;;;;;;0.50;0.50;;;10.10;99.90;;;;;;5068789;28;20073;-50
2021/05/11 06:04:18;;;;;;;0.20;0.20;;;10.10;99.90;;;;;;5067773;28;20036;-50
2021/05/11 06:06:44;;;;;;;0.32;0.32;;;10.30;99.90;;;;;;5062885;28;20165;-51
2021/05/11 06:09:16;;;;;;;0.32;0.32;;;10.30;99.90;;;;;;5066130;28;20629;-48
2021/05/11 06:11:52;;;;;;;0.20;0.20;;;10.20;99.90;;;;;;5058980;28;20024;-49
2021/05/11 06:14:27;;;;;;;0.30;0.30;;;10.30;99.90;;;;;;5064255;28;20102;-47
2021/05/11 06:19:37;;;;;;;0.40;0.40;;;10.50;99.90;;;;;;5058636;28;20047;-48
2021/05/11 06:22:02;;;;;;;0.30;0.30;;;10.30;99.90;;;;;;5058614;28;20028;-47
2021/05/11 06:24:28;;;;;;;0.35;0.35;;;10.10;99.90;;;;;;5048208;28;20045;-49
2021/05/11 06:26:54;;;;;;;0.20;0.20;;;10.30;99.90;;;;;;5051552;28;20036;-48
2021/05/11 06:29:21;;;;;;;0.30;0.30;;;10.30;99.90;;;;;;5064343;28;20032;-52
2021/05/11 06:31:48;;;;;;;0.40;0.40;;;10.30;99.90;;;;;;5048734;28;20403;-48
2021/05/11 06:34:14;;;;;;;0.43;0.40;;;10.10;99.90;;;;;;5063226;28;20461;-53
2021/05/11 06:36:39;;;;;;;0.32;0.32;;;10.00;99.90;;;;;;5069024;28;20027;-49
2021/05/11 06:39:09;;;;;;;0.65;0.50;;;10.00;99.90;;;;;;5068611;28;20051;-50
2021/05/11 06:41:37;;;;;;;0.40;0.40;;;10.10;99.90;;;;;;5068216;28;20100;-53
2021/05/11 06:44:07;;;;;;;0.70;0.55;;;10.20;99.90;;;;;;5068280;28;20574;-49
2021/05/11 06:49:33;;;;;;;0.47;0.47;;;10.20;99.90;;;;;;5068544;28;20035;-52
2021/05/11 06:55:06;;;;;;;0.40;0.40;;;10.30;99.90;;;;;;5010582;28;20029;-49
2021/05/11 06:57:32;;;;;;;0.45;0.45;;;10.30;99.90;;;;;;5033949;28;20028;-53
2021/05/11 06:59:57;;;;;;;0.73;0.38;;;10.20;99.90;;;;;;5034522;28;20815;-48
2021/05/11 07:02:23;;;;;;;0.40;0.40;;;10.40;99.90;;;;;;5060053;28;20029;-53
2021/05/11 07:04:53;;;;;;;0.40;0.40;;;10.40;99.90;;;;;;5065025;28;20099;-51
2021/05/11 07:07:20;;;;;;;0.40;0.30;;;10.30;99.90;;;;;;5066908;28;20094;-50
2021/05/11 07:14:59;;;;;;;0.20;0.20;;;10.50;99.90;;;;;;5063125;28;20036;-50
2021/05/11 07:17:25;;;;;;;0.30;0.30;;;10.50;99.90;;;;;;5067481;28;20080;-50
2021/05/11 07:19:52;;;;;;;0.20;0.20;;;10.50;99.90;;;;;;5066134;28;20028;-50
2021/05/11 07:22:18;;;;;;;0.20;0.20;;;10.40;99.90;;;;;;5051203;28;20020;-51
2021/05/11 07:24:47;;;;;;;0.40;0.40;;;10.40;99.90;;;;;;5061342;28;20306;-53
2021/05/11 07:29:51;;;;;;;0.38;0.38;;;10.60;99.90;;;;;;5066433;28;20089;-48
2021/05/11 07:32:17;;;;;;;0.30;0.30;;;10.60;99.90;;;;;;5065033;28;20086;-49
2021/05/11 07:34:45;;;;;;;0.52;0.52;;;10.60;99.90;;;;;;5066156;28;20220;-49
2021/05/11 07:37:12;;;;;;;0.30;0.30;;;10.70;99.90;;;;;;5066568;28;20028;-49
2021/05/11 07:39:39;;;;;;;0.30;0.30;;;10.80;99.90;;;;;;5065793;28;20514;-51
2021/05/11 07:42:05;;;;;;;0.20;0.20;;;10.80;99.90;;;;;;5065845;28;20052;-51
2021/05/11 07:44:32;;;;;;;0.22;0.22;;;10.80;99.90;;;;;;5065058;28;20036;-50
2021/05/11 08:16:08;;;;;;;0.30;0.30;;;11.10;99.90;;;;;;5065415;28;20052;-52
2021/05/11 08:29:31;;;;;;;0.30;0.30;;;11.40;99.90;;;;;;5064987;28;20103;-53
2021/05/11 08:31:57;;;;;;;0.63;0.40;;;11.40;99.90;;;;;;5065350;28;20052;-53
2021/05/11 08:34:23;;;;;;;0.25;0.25;;;11.20;99.90;;;;;;5064799;28;20039;-53
2021/05/11 08:36:50;;;;;;;0.40;0.40;;;11.20;99.90;;;;;;5064446;28;20033;-50
2021/05/11 08:39:16;;;;;;;0.30;0.30;;;11.40;99.90;;;;;;5065226;28;20074;-53
2021/05/11 08:41:42;;;;;;;0.20;0.20;;;11.50;99.90;;;;;;5065635;28;20025;-52
2021/05/11 08:44:13;;;;;;;0.30;0.30;;;11.60;99.90;;;;;;5064782;28;20067;-53
2021/05/11 08:46:40;;;;;;;0.77;0.30;;;11.60;99.90;;;;;;5065336;28;20025;-52
2021/05/11 08:49:06;;;;;;;0.30;0.30;;;11.70;99.90;;;;;;5065185;28;20414;-51
2021/05/11 08:51:38;;;;;;;0.20;0.20;;;11.60;99.90;;;;;;5064667;28;20111;-53
2021/05/11 09:05:12;;;;;;;0.55;0.28;;;12.00;99.90;;;;;;5064967;28;20047;-52
2021/05/11 10:48:28;;;;;;;0.50;0.50;;;12.90;99.90;;;;;;5067157;28;20035;-54
2021/05/11 10:51:00;;;;;;;0.50;0.50;;;13.00;99.90;;;;;;5066942;28;20032;-53
2021/05/11 10:53:45;;;;;;;0.43;0.43;;;13.00;99.90;;;;;;5066298;28;20029;-54
2021/05/11 11:01:58;;;;;;;0.45;0.45;;;12.90;99.90;;;;;;5063758;28;20455;-55
2021/05/11 11:04:29;;;;;;;0.40;0.40;;;12.80;99.90;;;;;;5066376;28;20114;-54
2021/05/11 11:06:58;;;;;;;0.30;0.30;;;13.00;99.90;;;;;;5064803;28;20020;-54
2021/05/11 11:09:28;;;;;;;0.30;0.30;;;13.20;99.90;;;;;;5067511;28;20494;-55
2021/05/11 11:11:55;;;;;;;0.28;0.28;;;13.40;99.90;;;;;;5067377;28;20120;-55
2021/05/11 11:14:21;;;;;;;0.40;0.40;;;13.40;99.90;;;;;;5066032;28;20024;-55
2021/05/11 11:16:48;;;;;;;0.40;0.40;;;13.30;99.90;;;;;;5051159;28;20681;-55
2021/05/11 11:19:16;;;;;;;0.40;0.40;;;13.20;99.90;;;;;;5065742;28;20093;-55
2021/05/11 11:24:32;;;;;;;0.68;0.50;;;13.30;99.90;;;;;;5066384;28;20044;-63
2021/05/11 11:26:59;;;;;;;0.47;0.47;;;13.40;99.90;;;;;;5064518;28;20348;-54
2021/05/11 11:29:26;;;;;;;0.30;0.30;;;13.50;99.90;;;;;;5067138;28;20024;-53
2021/05/11 11:31:52;;;;;;;0.50;0.50;;;13.60;99.90;;;;;;5064036;28;20024;-53
2021/05/11 11:34:33;;;;;;;0.98;0.50;;;13.80;99.90;;;;;;5065906;28;20021;-54
2021/05/11 11:37:02;;;;;;;0.30;0.30;;;13.80;99.90;;;;;;5065827;28;20029;-54
2021/05/11 11:39:28;;;;;;;0.50;0.50;;;13.90;99.90;;;;;;5065314;28;20024;-55
2021/05/11 11:41:56;;;;;;;0.30;0.30;;;14.10;99.90;;;;;;5065661;28;20441;-55
2021/05/11 11:44:25;;;;;;;0.40;0.40;;;14.20;99.90;;;;;;5065040;28;20537;-53
2021/05/11 11:46:56;;;;;;;0.40;0.40;;;14.20;99.90;;;;;;5067125;28;20024;-54
2021/05/11 11:49:25;;;;;;;0.32;0.32;;;14.30;99.90;;;;;;5056931;28;20039;-54
2021/05/11 12:00:16;;;;;;;0.50;0.30;;;14.50;99.90;;;;;;5063888;28;20043;-54
2021/05/11 12:03:10;;;;;;;1.52;0.30;;;14.50;99.90;;;;;;5066763;28;20056;-54
2021/05/11 12:05:43;;;;;;;0.40;0.40;;;14.50;99.90;;;;;;5066197;28;20024;-54
2021/05/11 12:11:02;;;;;;;0.35;0.35;;;14.60;99.90;;;;;;5048748;28;20425;-54
2021/05/11 12:13:33;;;;;;;1.60;0.30;;;14.70;99.90;;;;;;5066048;28;20086;-54
2021/05/11 12:16:16;;;;;;;0.40;0.40;;;14.70;99.90;;;;;;5064387;28;20095;-54
2021/05/11 12:21:32;;;;;;;0.55;0.40;;;14.80;99.90;;;;;;5065113;28;20029;-54
2021/05/11 12:24:06;;;;;;;0.63;0.32;;;14.70;99.90;;;;;;5066524;28;20613;-54
2021/05/11 12:26:32;;;;;;;;;;;14.70;99.90;;;;;;5065637;28;20418;-56
2021/05/11 12:29:09;;;;;;;0.30;0.30;;;14.80;99.90;;;;;;5065052;28;19916;-55
2021/05/11 12:31:37;;;;;;;0.82;0.40;;;14.90;99.90;;;;;;5066243;28;20029;-56
2021/05/11 12:34:08;;;;;;;0.75;0.38;;;14.90;99.90;;;;;;5066406;28;20037;-56
2021/05/11 12:36:48;;;;;;;0.52;0.38;;;14.90;99.90;;;;;;5049115;28;20048;-56
2021/05/11 12:39:47;;;;;;;0.45;0.45;;;15.00;99.90;;;;;;5046639;28;20028;-56
2021/05/11 12:42:24;;;;;;;0.55;0.45;;;15.00;99.90;;;;;;5046220;28;20029;-56
2021/05/11 12:45:02;;;;;;;0.47;0.40;;;15.10;99.90;;;;;;5044884;28;20035;-53
2021/05/11 12:47:46;;;;;;;0.40;0.40;;;15.30;99.90;;;;;;5044692;28;20044;-56
2021/05/11 12:50:24;;;;;;;0.32;0.30;;;15.60;99.90;;;;;;5045780;28;20403;-56
2021/05/11 12:52:52;;;;;;;0.40;0.40;;;15.90;99.90;;;;;;5044841;28;20468;-55
2021/05/11 13:01:08;;;;;;;1.20;0.57;;;16.10;99.90;;;;;;5044886;28;20114;-55
2021/05/11 13:03:51;;;;;;;0.40;0.40;;;16.20;99.90;;;;;;5044471;28;20543;-55
2021/05/11 13:17:08;;;;;;;0.57;0.57;;;17.00;99.90;;;;;;5044534;28;20032;-55
2021/05/11 13:25:05;;;;;;;0.90;0.52;;;17.50;99.90;;;;;;5045021;28;20593;-55
2021/05/11 13:25:23;;;;;;;0.63;0.45;;;17.10;99.90;;;;;;5035595;28;20041;-57
2021/05/11 13:28:34;;;;;;;0.75;0.47;;;16.40;99.90;;;;;;5048510;28;20749;-56
2021/05/11 13:35:35;;;;;;;1.85;0.30;;;14.10;99.90;;;;;;5047997;28;20025;-55
2021/05/11 13:38:04;;;;;;;0.40;0.40;;;13.60;99.90;;;;;;5048269;28;20028;-55
2021/05/11 13:40:29;;;;;;;1.55;0.40;;;13.70;99.90;;;;;;5047832;28;20028;-55
2021/05/11 13:42:55;;;;;;;0.70;0.50;;;13.40;99.90;;;;;;5048177;28;20403;-56
2021/05/11 13:45:24;;;;;;;0.50;0.32;;;13.00;99.90;;;;;;5047741;28;20037;-54
2021/05/11 13:50:32;;;;;;;0.40;0.40;;;12.80;99.90;;;;;;5047745;28;20503;-51
2021/05/11 13:52:58;;;;;;;0.98;0.35;;;12.40;99.90;;;;;;5048034;28;20052;-52
2021/05/11 13:55:34;;;;;;;0.40;0.40;;;12.40;99.90;;;;;;5047490;28;20424;-51
2021/05/11 14:03:21;;;;;;;0.32;0.30;;;12.30;99.90;;;;;;5047433;28;20075;-53
2021/05/11 14:05:47;;;;;;;0.25;0.25;;;12.30;99.90;;;;;;5047800;28;20043;-53
2021/05/11 14:08:12;;;;;;;0.20;0.20;;;12.50;99.90;;;;;;5058608;28;20016;-53
2021/05/11 14:10:40;;;;;;;0.68;0.30;;;12.50;99.90;;;;;;5068413;28;20572;-54
2021/05/11 14:13:05;;;;;;;0.30;0.25;;;12.50;99.90;;;;;;5069007;28;20029;-55
2021/05/11 14:15:32;;;;;;;0.47;0.38;;;12.60;99.90;;;;;;5068803;28;20074;-52
2021/05/11 14:17:58;;;;;;;0.50;0.40;;;12.70;99.90;;;;;;5069151;28;20035;-53
2021/05/11 14:20:24;;;;;;;0.47;0.30;;;12.70;99.90;;;;;;5068217;28;20020;-54
2021/05/11 14:22:49;;;;;;;0.38;0.38;;;12.70;99.90;;;;;;5068411;28;20063;-54
2021/05/11 14:25:15;;;;;;;1.00;0.60;;;12.70;99.90;;;;;;5067762;28;20021;-54
2021/05/11 14:27:42;;;;;;;0.20;0.20;;;12.70;99.90;;;;;;5063285;28;20490;-53
2021/05/11 14:30:08;;;;;;;1.00;0.40;;;12.60;99.90;;;;;;5066091;28;20021;-55
2021/05/11 14:32:33;;;;;;;0.20;0.20;;;12.70;99.90;;;;;;5064155;28;20542;-54
2021/05/11 14:34:59;;;;;;;0.20;0.20;;;12.60;99.90;;;;;;5063733;28;20036;-54
2021/05/11 14:37:25;;;;;;;0.30;0.30;;;12.70;99.90;;;;;;5064647;28;20119;-53
2021/05/11 14:39:51;;;;;;;0.50;0.40;;;12.80;99.90;;;;;;5066434;28;20029;-54
2021/05/11 14:42:17;;;;;;;0.40;0.35;;;13.10;99.90;;;;;;5069626;28;20029;-55
2021/05/11 14:44:43;;;;;;;0.17;0.17;;;13.50;99.90;;;;;;5067960;28;20056;-54
2021/05/11 14:47:10;;;;;;;0.22;0.20;;;13.70;99.90;;;;;;5068304;28;20071;-54
2021/05/11 14:49:36;;;;;;;0.60;0.20;;;13.90;99.90;;;;;;5064243;28;20024;-55
2021/05/11 14:52:02;;;;;;;0.28;0.28;;;13.90;99.90;;;;;;5067780;28;20040;-55
2021/05/11 14:54:28;;;;;;;0.28;0.28;;;13.80;99.90;;;;;;5067470;28;20031;-55
2021/05/11 14:56:53;;;;;;;0.30;0.30;;;13.60;99.90;;;;;;5068118;28;20028;-55
2021/05/11 14:59:21;;;;;;;0.30;0.30;;;13.60;99.90;;;;;;5067999;28;20025;-54
2021/05/11 15:01:46;;;;;;;0.43;0.30;;;13.70;99.90;;;;;;5067758;28;20078;-55
2021/05/11 15:04:12;;;;;;;0.20;0.20;;;13.60;99.90;;;;;;5068347;28;20514;-55
2021/05/11 15:06:37;;;;;;;0.20;0.20;;;13.70;99.90;;;;;;5067508;28;20158;-54
2021/05/11 15:09:03;;;;;;;0.20;0.20;;;13.70;99.90;;;;;;5066713;28;20036;-55
2021/05/11 15:11:29;;;;;;;0.30;0.20;;;13.60;99.90;;;;;;5068862;28;20111;-55
2021/05/11 15:13:57;;;;;;;0.30;0.30;;;13.20;99.90;;;;;;5068249;28;20209;-56
2021/05/11 15:16:24;;;;;;;0.38;0.30;;;13.20;99.90;;;;;;5068132;28;20056;-55
2021/05/11 15:18:50;;;;;;;0.20;0.20;;;13.10;99.90;;;;;;5068792;28;20050;-56
2021/05/11 15:21:17;;;;;;;0.32;0.20;;;13.10;99.90;;;;;;5067723;28;20028;-56
2021/05/11 15:23:44;;;;;;;0.60;0.38;;;13.10;99.90;;;;;;5068239;28;20032;-55
2021/05/11 15:26:12;;;;;;;0.82;0.30;;;13.00;99.90;;;;;;5067246;28;20135;-56
2021/05/11 15:28:39;;;;;;;1.60;0.30;;;13.00;99.90;;;;;;5067940;28;20109;-55
2021/05/11 15:31:05;;;;;;;0.20;0.20;;;12.90;99.90;;;;;;5067196;28;20051;-55
2021/05/11 15:33:32;;;;;;;0.75;0.22;;;13.00;99.90;;;;;;5066897;28;20033;-55
2021/05/11 15:35:59;;;;;;;0.20;0.20;;;12.90;99.90;;;;;;5067241;28;20024;-55
2021/05/11 15:38:28;;;;;;;0.55;0.38;;;12.90;99.90;;;;;;5066090;28;20529;-56
2021/05/11 15:40:56;;;;;;;0.50;0.20;;;12.90;99.90;;;;;;5064192;28;20043;-57
2021/05/11 15:43:22;;;;;;;0.30;0.30;;;13.00;99.90;;;;;;5065915;28;20541;-56
2021/05/11 15:45:47;;;;;;;0.28;0.20;;;13.00;99.90;;;;;;5063071;28;20032;-57
2021/05/11 15:48:14;;;;;;;0.25;0.25;;;13.10;99.90;;;;;;5067394;28;20457;-56
2021/05/11 15:50:46;;;;;;;0.60;0.20;;;13.20;99.90;;;;;;5065377;28;20070;-56
2021/05/11 15:53:14;;;;;;;0.28;0.28;;;13.20;99.90;;;;;;5059256;28;20029;-55
2021/05/11 15:55:43;;;;;;;0.45;0.30;;;13.20;99.90;;;;;;5066404;28;20017;-57
2021/05/11 15:58:11;;;;;;;0.70;0.38;;;13.20;99.90;;;;;;5066905;28;20048;-56
2021/05/11 16:00:42;;;;;;;0.20;0.20;;;13.20;99.90;;;;;;5066610;28;20095;-55
2021/05/11 16:03:09;;;;;;;0.40;0.30;;;13.20;99.90;;;;;;5066328;28;20034;-57
2021/05/11 16:05:37;;;;;;;0.30;0.30;;;13.20;99.90;;;;;;5065943;28;20024;-56
2021/05/11 16:08:06;;;;;;;0.30;0.30;;;13.10;99.90;;;;;;5066368;28;20414;-56
2021/05/11 16:10:33;;;;;;;0.43;0.30;;;13.20;99.90;;;;;;5065641;28;20064;-56
2021/05/11 16:12:59;;;;;;;0.40;0.40;;;13.20;99.90;;;;;;5066144;28;20467;-56
2021/05/11 16:15:25;;;;;;;1.45;0.40;;;13.30;99.90;;;;;;5066177;28;20105;-56
2021/05/11 16:17:51;;;;;;;0.30;0.30;;;13.50;99.90;;;;;;5055839;28;20074;-56
2021/05/11 16:20:17;;;;;;;0.60;0.50;;;14.20;99.90;;;;;;5054573;28;20063;-55
2021/05/11 16:22:43;;;;;;;0.30;0.30;;;14.10;99.90;;;;;;5060692;28;20078;-54
2021/05/11 16:25:11;;;;;;;0.52;0.35;;;14.10;99.90;;;;;;5057888;28;20021;-56
2021/05/11 16:27:40;;;;;;;0.40;0.40;;;14.60;99.90;;;;;;5057691;28;20082;-55
2021/05/11 16:30:17;;;;;;;0.47;0.47;;;14.80;99.90;;;;;;5058089;28;20078;-54
2021/05/11 16:32:47;;;;;;;0.47;0.40;;;15.10;99.90;;;;;;5062229;28;20102;-55
2021/05/11 16:35:14;;;;;;;0.38;0.35;;;15.50;99.90;;;;;;5067241;28;20108;-55
2021/05/11 16:37:41;;;;;;;0.40;0.40;;;15.90;99.90;;;;;;5055262;28;20032;-56
2021/05/11 16:40:09;;;;;;;1.38;0.30;;;16.20;99.90;;;;;;5055637;28;20107;-56
2021/05/11 16:42:36;;;;;;;0.43;0.20;;;16.30;99.90;;;;;;5054691;28;20032;-57
2021/05/11 16:45:02;;;;;;;0.22;0.22;;;16.30;99.90;;;;;;5059067;28;20772;-56
2021/05/11 16:47:28;;;;;;;0.50;0.30;;;16.30;99.90;;;;;;5059670;28;20033;-55
2021/05/11 16:49:53;;;;;;;0.30;0.30;;;16.40;99.90;;;;;;5058593;28;20035;-56
2021/05/11 16:52:21;;;;;;;0.57;0.22;;;16.30;99.90;;;;;;5066376;28;20584;-55
2021/05/11 16:54:47;;;;;;;0.30;0.30;;;16.40;99.90;;;;;;5054384;28;20437;-56
2021/05/11 16:57:13;;;;;;;0.70;0.32;;;16.50;99.90;;;;;;5053284;28;20079;-56
2021/05/11 16:59:39;;;;;;;0.30;0.30;;;16.70;99.90;;;;;;5059531;28;20562;-56
2021/05/11 17:02:05;;;;;;;0.20;0.20;;;16.80;99.90;;;;;;5060815;28;20107;-55
2021/05/11 17:04:30;;;;;;;0.20;0.20;;;16.90;99.90;;;;;;5061544;28;20102;-55
2021/05/11 17:06:56;;;;;;;0.35;0.28;;;16.70;99.90;;;;;;5062973;28;20032;-56
2021/05/11 17:09:22;;;;;;;0.20;0.20;;;16.60;99.90;;;;;;5063019;28;20058;-55
2021/05/11 17:11:48;;;;;;;0.30;0.30;;;16.70;99.90;;;;;;5070143;28;20036;-56
2021/05/11 17:14:14;;;;;;;0.30;0.30;;;16.60;99.90;;;;;;5069974;28;20111;-55
2021/05/11 17:16:40;;;;;;;1.42;0.30;;;16.60;99.90;;;;;;5069056;28;20086;-55
2021/05/11 17:19:06;;;;;;;0.20;0.20;;;16.60;99.90;;;;;;5069176;28;20131;-52
2021/05/11 17:21:33;;;;;;;0.25;0.20;;;16.60;99.90;;;;;;5070380;28;20115;-55
2021/05/11 17:23:59;;;;;;;0.73;0.60;;;16.60;99.90;;;;;;5068667;28;20056;-55
2021/05/11 17:26:26;;;;;;;0.52;0.22;;;16.40;99.90;;;;;;5068470;28;20506;-53
2021/05/11 17:28:54;;;;;;;0.20;0.20;;;16.40;99.90;;;;;;5068503;28;20141;-55
2021/05/11 17:31:20;;;;;;;0.30;0.30;;;16.40;99.90;;;;;;5064613;28;20089;-53
2021/05/11 17:33:46;;;;;;;0.22;0.22;;;16.40;99.90;;;;;;5069272;28;20024;-53
2021/05/11 17:36:12;;;;;;;0.30;0.20;;;16.40;99.90;;;;;;5065397;28;20033;-52
2021/05/11 17:38:39;;;;;;;0.10;0.10;;;16.40;99.90;;;;;;5068659;28;20077;-54
2021/05/11 17:41:06;;;;;;;0.28;0.28;;;16.30;99.90;;;;;;5070101;28;20032;-53
2021/05/11 17:43:32;;;;;;;0.20;0.20;;;16.30;99.90;;;;;;5074043;28;20036;-55